Time;durP1;ratioP1;P1;durP2;ratioP2;P2;SDS_P1;SDS_P2;PMS_P1;PMS_P2;Temp;Humidity;BMP_temperature;BMP_pressure;BME280_temperature;BME280_humidity;BME280_pressure;Samples;Min_cycle;Max_cycle;Signal;HPM_P1;HPM_P2
2021/03/02 00:00:16;;;;;;;9.15;4.70;;;;;;;;;;5135396;28;20200;-48
2021/03/02 00:02:43;;;;;;;7.75;4.68;;;;;;;;;;5135256;28;20192;-55
2021/03/02 00:05:26;;;;;;;8.20;4.78;;;;;;;;;;5135862;28;20189;-50
2021/03/02 00:07:53;;;;;;;8.23;5.35;;;;;;;;;;5135924;28;20252;-50
2021/03/02 00:10:20;;;;;;;9.25;5.97;;;;;;;;;;5136284;28;20189;-52
2021/03/02 00:12:46;;;;;;;11.50;5.65;;;;;;;;;;5135970;28;20194;-49
2021/03/02 00:15:14;;;;;;;9.30;5.53;;;;;;;;;;5136193;28;20432;-49
2021/03/02 00:17:52;;;;;;;11.77;6.65;;;;;;;;;;5136409;28;20190;-51
2021/03/02 00:20:21;;;;;;;8.52;4.85;;;;;;;;;;5136350;28;20240;-50
2021/03/02 00:22:57;;;;;;;10.95;5.25;;;;;;;;;;5136078;28;20225;-52
2021/03/02 00:25:36;;;;;;;9.10;4.70;;;;;;;;;;5138809;28;20229;-50
2021/03/02 00:28:03;;;;;;;7.93;3.83;;;;;;;;;;5140257;28;20215;-50
2021/03/02 00:30:31;;;;;;;73.90;43.13;;;;;;;;;;5138924;28;20205;-54
2021/03/02 00:33:15;;;;;;;88.80;53.33;;;;;;;;;;5139655;28;20181;-49
2021/03/02 00:35:42;;;;;;;6.93;4.30;;;;;;;;;;5139776;28;20204;-54
2021/03/02 00:38:09;;;;;;;10.75;5.25;;;;;;;;;;5140239;28;20204;-55
2021/03/02 00:43:39;;;;;;;6.03;4.43;;;;;;;;;;5042555;28;20232;-50
2021/03/02 00:46:06;;;;;;;11.77;4.10;;;;;;;;;;5054548;28;20200;-52
2021/03/02 00:48:48;;;;;;;9.85;5.25;;;;;;;;;;5054949;28;20239;-49
2021/03/02 00:51:15;;;;;;;8.50;4.22;;;;;;;;;;5053037;28;20256;-47
2021/03/02 00:53:41;;;;;;;8.50;4.07;;;;;;;;;;5054890;28;20304;-52
2021/03/02 00:56:18;;;;;;;6.85;4.40;;;;;;;;;;5054952;28;20199;-50
2021/03/02 00:58:44;;;;;;;9.23;4.72;;;;;;;;;;5054615;28;20212;-50
2021/03/02 01:01:12;;;;;;;9.27;5.47;;;;;;;;;;5054981;28;20195;-53
2021/03/02 01:03:51;;;;;;;8.43;4.40;;;;;;;;;;5055005;28;20211;-51
2021/03/02 01:06:18;;;;;;;10.00;5.20;;;;;;;;;;5054863;28;20196;-52
2021/03/02 01:08:45;;;;;;;6.47;3.72;;;;;;;;;;5054655;28;20219;-48
2021/03/02 01:11:12;;;;;;;9.05;4.85;;;;;;;;;;5054663;28;20217;-49
2021/03/02 01:13:39;;;;;;;8.90;4.55;;;;;;;;;;5055033;28;20198;-48
2021/03/02 01:16:16;;;;;;;7.47;4.65;;;;;;;;;;5055274;28;20219;-55
2021/03/02 01:18:45;;;;;;;8.15;5.70;;;;;;;;;;5055082;28;20213;-52
2021/03/02 01:21:14;;;;;;;9.52;5.18;;;;;;;;;;5054604;28;20229;-51
2021/03/02 01:24:16;;;;;;;8.65;4.90;;;;;;;;;;5055640;28;20202;-57
2021/03/02 01:26:42;;;;;;;10.68;5.88;;;;;;;;;;5055542;28;20222;-43
2021/03/02 01:29:10;;;;;;;12.95;7.35;;;;;;;;;;5064798;28;20221;-55
2021/03/02 01:31:43;;;;;;;10.18;5.88;;;;;;;;;;5074483;28;20194;-47
2021/03/02 01:34:11;;;;;;;9.40;5.78;;;;;;;;;;5066243;28;20216;-48
2021/03/02 01:36:40;;;;;;;8.52;5.15;;;;;;;;;;5054202;28;20209;-50
2021/03/02 01:39:23;;;;;;;12.65;6.18;;;;;;;;;;5053986;28;20201;-54
2021/03/02 01:41:51;;;;;;;8.57;5.65;;;;;;;;;;5053863;28;20206;-51
2021/03/02 01:44:18;;;;;;;11.75;6.10;;;;;;;;;;5053209;28;20209;-53
2021/03/02 01:46:47;;;;;;;10.85;7.20;;;;;;;;;;5053341;28;20199;-50
2021/03/02 01:49:14;;;;;;;12.50;6.97;;;;;;;;;;5052943;28;20230;-49
2021/03/02 01:51:41;;;;;;;13.10;6.78;;;;;;;;;;5054102;28;20238;-52
2021/03/02 01:54:35;;;;;;;11.98;6.15;;;;;;;;;;5053886;28;20218;-47
2021/03/02 01:57:02;;;;;;;13.27;7.10;;;;;;;;;;5054491;28;20192;-55
2021/03/02 01:59:28;;;;;;;11.90;6.00;;;;;;;;;;5053314;28;20203;-51
2021/03/02 02:02:02;;;;;;;13.55;6.88;;;;;;;;;;5053982;28;20201;-48
2021/03/02 02:04:41;;;;;;;10.68;5.53;;;;;;;;;;5054019;28;20201;-52
2021/03/02 02:07:17;;;;;;;9.35;5.43;;;;;;;;;;5054059;28;20206;-45
2021/03/02 02:09:48;;;;;;;11.05;6.18;;;;;;;;;;5034954;28;20255;-49
2021/03/02 02:12:18;;;;;;;12.75;6.03;;;;;;;;;;5034586;28;20192;-51
2021/03/02 02:14:46;;;;;;;11.18;5.85;;;;;;;;;;5033897;28;20400;-47
2021/03/02 02:17:20;;;;;;;8.23;5.35;;;;;;;;;;5033684;28;20197;-48
2021/03/02 02:19:48;;;;;;;11.52;5.30;;;;;;;;;;5016507;28;20214;-50
2021/03/02 02:22:28;;;;;;;10.10;5.13;;;;;;;;;;5033339;28;20214;-49
2021/03/02 02:25:11;;;;;;;11.80;5.00;;;;;;;;;;5033332;28;20243;-53
2021/03/02 02:27:51;;;;;;;12.30;5.55;;;;;;;;;;5032897;28;20215;-51
2021/03/02 02:30:18;;;;;;;8.23;4.13;;;;;;;;;;5033504;28;20207;-48
2021/03/02 02:32:47;;;;;;;10.55;5.80;;;;;;;;;;5032992;28;20209;-50
2021/03/02 02:35:17;;;;;;;7.82;4.60;;;;;;;;;;5033983;28;20215;-51
2021/03/02 02:37:44;;;;;;;11.63;4.50;;;;;;;;;;5033285;28;20215;-45
2021/03/02 02:40:13;;;;;;;7.40;4.20;;;;;;;;;;5033625;28;20334;-52
2021/03/02 02:42:48;;;;;;;8.15;4.45;;;;;;;;;;5033414;28;20220;-50
2021/03/02 02:45:16;;;;;;;100.05;52.30;;;;;;;;;;5033662;28;20207;-51
2021/03/02 02:47:43;;;;;;;16.70;9.20;;;;;;;;;;5032680;28;20210;-47
2021/03/02 02:50:10;;;;;;;8.73;5.72;;;;;;;;;;5032431;28;20216;-55
2021/03/02 02:52:39;;;;;;;9.05;6.10;;;;;;;;;;5033439;28;20267;-46
2021/03/02 02:58:10;;;;;;;7.75;4.65;;;;;;;;;;5033105;28;20247;-42
2021/03/02 03:00:38;;;;;;;8.27;4.82;;;;;;;;;;5032788;28;20218;-48
2021/03/02 03:03:24;;;;;;;5.13;3.33;;;;;;;;;;5033367;28;20211;-52
2021/03/02 03:05:53;;;;;;;5.05;3.40;;;;;;;;;;5033441;28;20238;-54
2021/03/02 03:08:23;;;;;;;8.32;3.67;;;;;;;;;;5032717;28;20222;-50
2021/03/02 03:10:56;;;;;;;7.72;4.10;;;;;;;;;;5033264;28;20218;-52
2021/03/02 03:13:25;;;;;;;6.43;4.13;;;;;;;;;;5046012;28;20216;-52
2021/03/02 03:15:54;;;;;;;8.70;4.55;;;;;;;;;;5052921;28;20194;-50
2021/03/02 03:18:23;;;;;;;5.80;3.88;;;;;;;;;;5053084;28;20209;-52
2021/03/02 03:20:50;;;;;;;6.20;4.28;;;;;;;;;;5052796;28;20214;-47
2021/03/02 03:23:18;;;;;;;6.00;3.80;;;;;;;;;;5052604;28;20224;-44
2021/03/02 03:25:46;;;;;;;6.85;3.70;;;;;;;;;;5052379;28;20195;-50
2021/03/02 03:28:14;;;;;;;5.93;4.18;;;;;;;;;;5052890;28;20218;-49
2021/03/02 03:30:45;;;;;;;6.38;4.00;;;;;;;;;;5053049;28;20190;-49
2021/03/02 03:33:14;;;;;;;12.73;5.10;;;;;;;;;;5052594;28;20195;-53
2021/03/02 03:35:41;;;;;;;7.57;4.25;;;;;;;;;;5052508;28;20209;-49
2021/03/02 03:38:11;;;;;;;7.35;3.95;;;;;;;;;;5052525;28;20217;-50
2021/03/02 03:40:37;;;;;;;8.88;4.53;;;;;;;;;;5053037;28;20209;-45
2021/03/02 03:43:04;;;;;;;10.98;4.60;;;;;;;;;;5052485;28;20278;-54
2021/03/02 03:45:56;;;;;;;6.88;4.65;;;;;;;;;;5052679;28;20210;-51
2021/03/02 03:48:24;;;;;;;7.68;4.60;;;;;;;;;;5051734;28;20211;-52
2021/03/02 03:50:51;;;;;;;8.60;4.20;;;;;;;;;;5052532;28;20234;-47
2021/03/02 03:53:25;;;;;;;7.03;4.53;;;;;;;;;;5052540;28;20210;-46
2021/03/02 03:55:53;;;;;;;8.25;4.70;;;;;;;;;;5052718;28;20231;-52
2021/03/02 03:58:24;;;;;;;7.70;4.70;;;;;;;;;;5053581;28;20258;-51
2021/03/02 04:00:53;;;;;;;6.78;4.93;;;;;;;;;;5055474;28;20220;-48
2021/03/02 04:03:20;;;;;;;8.90;5.20;;;;;;;;;;5055633;28;20203;-43
2021/03/02 04:05:49;;;;;;;6.80;4.40;;;;;;;;;;5055972;28;20217;-52
2021/03/02 04:08:23;;;;;;;8.32;5.15;;;;;;;;;;5055678;28;20255;-50
2021/03/02 04:10:50;;;;;;;9.00;6.00;;;;;;;;;;5055955;28;20239;-54
2021/03/02 04:13:17;;;;;;;9.23;5.18;;;;;;;;;;5055568;28;20209;-49
2021/03/02 04:16:04;;;;;;;7.15;4.68;;;;;;;;;;5055919;28;20191;-50
2021/03/02 04:18:31;;;;;;;8.20;4.20;;;;;;;;;;5055463;28;20213;-47
2021/03/02 04:20:58;;;;;;;10.07;6.30;;;;;;;;;;5055723;28;20216;-53
2021/03/02 04:23:25;;;;;;;9.07;4.93;;;;;;;;;;5055499;28;20194;-47
2021/03/02 04:25:52;;;;;;;6.43;4.82;;;;;;;;;;5055855;28;20191;-48
2021/03/02 04:28:19;;;;;;;9.00;4.57;;;;;;;;;;5055343;28;20352;-53
2021/03/02 04:30:55;;;;;;;7.22;5.30;;;;;;;;;;5055248;28;20209;-47
2021/03/02 04:33:22;;;;;;;6.32;4.63;;;;;;;;;;5054636;28;20207;-57
2021/03/02 04:35:49;;;;;;;8.60;5.55;;;;;;;;;;5054973;28;20207;-48
2021/03/02 04:38:18;;;;;;;6.85;4.65;;;;;;;;;;5054549;28;20207;-53
2021/03/02 04:40:45;;;;;;;10.63;5.20;;;;;;;;;;5055091;28;20207;-55
2021/03/02 04:43:12;;;;;;;10.70;6.32;;;;;;;;;;5054878;28;20195;-47
2021/03/02 04:45:49;;;;;;;12.70;7.10;;;;;;;;;;5054925;28;20221;-56
2021/03/02 04:48:16;;;;;;;24.88;14.18;;;;;;;;;;5069151;28;20236;-54
2021/03/02 04:50:42;;;;;;;10.43;6.13;;;;;;;;;;5049858;27;20297;-55
2021/03/02 04:53:21;;;;;;;9.40;5.65;;;;;;;;;;5055182;28;20212;-57
2021/03/02 04:55:48;;;;;;;10.95;4.95;;;;;;;;;;5055005;28;20225;-54
2021/03/02 04:58:15;;;;;;;7.68;5.18;;;;;;;;;;5052914;28;20186;-56
2021/03/02 05:00:53;;;;;;;8.10;5.55;;;;;;;;;;5054325;28;20205;-53
2021/03/02 05:03:20;;;;;;;11.20;5.93;;;;;;;;;;5054062;28;20210;-49
2021/03/02 05:05:47;;;;;;;10.63;6.72;;;;;;;;;;5057783;28;20207;-53
2021/03/02 05:08:14;;;;;;;11.00;5.70;;;;;;;;;;5040342;28;20312;-50
2021/03/02 05:10:42;;;;;;;9.52;5.55;;;;;;;;;;5054410;28;20194;-55
2021/03/02 05:13:09;;;;;;;10.05;6.00;;;;;;;;;;5054659;28;20213;-47
2021/03/02 05:15:36;;;;;;;7.60;5.03;;;;;;;;;;5054233;28;20201;-51
2021/03/02 05:18:03;;;;;;;10.98;6.10;;;;;;;;;;5047809;28;20207;-47
2021/03/02 05:20:30;;;;;;;13.80;5.90;;;;;;;;;;5034244;28;20206;-50
2021/03/02 05:23:19;;;;;;;12.98;5.97;;;;;;;;;;5035617;28;20204;-54
2021/03/02 05:25:47;;;;;;;11.40;5.50;;;;;;;;;;5034566;28;20218;-51
2021/03/02 05:28:14;;;;;;;8.38;5.43;;;;;;;;;;5034073;28;20262;-52
2021/03/02 05:30:58;;;;;;;9.20;5.50;;;;;;;;;;5034141;28;20270;-52
2021/03/02 05:33:25;;;;;;;8.25;5.68;;;;;;;;;;5034512;28;20207;-51
2021/03/02 05:35:51;;;;;;;11.27;6.60;;;;;;;;;;5034382;28;20222;-47
2021/03/02 05:38:24;;;;;;;11.35;7.05;;;;;;;;;;5034674;28;20215;-50
2021/03/02 05:40:53;;;;;;;9.15;5.78;;;;;;;;;;5050830;28;20206;-51
2021/03/02 05:43:20;;;;;;;12.25;6.40;;;;;;;;;;5053858;28;20213;-48
2021/03/02 05:46:11;;;;;;;12.60;6.15;;;;;;;;;;5053927;28;20216;-50
2021/03/02 05:48:41;;;;;;;15.07;6.63;;;;;;;;;;5053949;28;20221;-51
2021/03/02 05:51:08;;;;;;;9.98;5.47;;;;;;;;;;5054213;28;20243;-51
2021/03/02 05:53:38;;;;;;;11.50;5.70;;;;;;;;;;5053711;28;20206;-48
2021/03/02 05:56:12;;;;;;;11.88;6.25;;;;;;;;;;5053314;28;20193;-52
2021/03/02 05:58:38;;;;;;;9.02;5.60;;;;;;;;;;5053423;28;20205;-59
2021/03/02 06:01:11;;;;;;;8.80;5.53;;;;;;;;;;5053334;28;20196;-54
2021/03/02 06:03:38;;;;;;;8.88;5.80;;;;;;;;;;5050295;28;20307;-51
2021/03/02 06:06:10;;;;;;;11.27;6.65;;;;;;;;;;5053222;28;20223;-53
2021/03/02 06:08:37;;;;;;;11.32;6.03;;;;;;;;;;5052715;28;20289;-54
2021/03/02 06:11:24;;;;;;;29.50;7.55;;;;;;;;;;5052928;28;20234;-51
2021/03/02 06:13:50;;;;;;;20.13;6.97;;;;;;;;;;5042170;28;20208;-49
2021/03/02 06:16:45;;;;;;;10.85;6.43;;;;;;;;;;5043671;28;20221;-49
2021/03/02 06:19:14;;;;;;;15.98;6.68;;;;;;;;;;5053394;28;20214;-53
2021/03/02 06:21:41;;;;;;;10.90;6.57;;;;;;;;;;5053208;28;20217;-50
2021/03/02 06:24:09;;;;;;;8.32;5.63;;;;;;;;;;5052115;28;20190;-50
2021/03/02 06:26:38;;;;;;;12.05;5.18;;;;;;;;;;5052264;28;20195;-54
2021/03/02 06:29:16;;;;;;;8.02;5.63;;;;;;;;;;5052677;28;20213;-54
2021/03/02 06:31:47;;;;;;;13.63;6.95;;;;;;;;;;5052031;28;20210;-55
2021/03/02 06:34:26;;;;;;;9.85;5.78;;;;;;;;;;5051659;28;20217;-49
2021/03/02 06:37:05;;;;;;;12.40;6.10;;;;;;;;;;5035699;28;20209;-50
2021/03/02 06:39:34;;;;;;;8.98;6.07;;;;;;;;;;5052450;28;20189;-53
2021/03/02 06:42:12;;;;;;;15.32;6.32;;;;;;;;;;5052347;28;20190;-55
2021/03/02 06:44:40;;;;;;;9.30;5.75;;;;;;;;;;5052101;28;20206;-55
2021/03/02 06:50:26;;;;;;;11.82;6.65;;;;;;;;;;5051485;28;20255;-49
2021/03/02 06:52:53;;;;;;;10.18;6.40;;;;;;;;;;5051967;28;20253;-61
2021/03/02 06:55:28;;;;;;;11.20;5.70;;;;;;;;;;5051703;28;20214;-51
2021/03/02 06:58:10;;;;;;;18.50;7.35;;;;;;;;;;5050852;28;20210;-50
2021/03/02 07:01:03;;;;;;;11.98;6.75;;;;;;;;;;5051398;28;20206;-51
2021/03/02 07:03:32;;;;;;;13.02;7.13;;;;;;;;;;5052219;28;20276;-54
2021/03/02 07:06:03;;;;;;;11.65;6.85;;;;;;;;;;5052407;28;20221;-54
2021/03/02 07:08:49;;;;;;;10.57;6.20;;;;;;;;;;5053053;28;20212;-55
2021/03/02 07:11:16;;;;;;;8.82;5.32;;;;;;;;;;5052235;28;20211;-52
2021/03/02 07:13:44;;;;;;;17.10;7.07;;;;;;;;;;5043160;28;20280;-51
2021/03/02 07:16:17;;;;;;;13.23;7.75;;;;;;;;;;5032251;28;20246;-50
2021/03/02 07:18:46;;;;;;;13.05;7.93;;;;;;;;;;5035951;28;20227;-51
2021/03/02 07:21:13;;;;;;;10.88;6.53;;;;;;;;;;5052744;28;20200;-47
2021/03/02 07:23:43;;;;;;;10.50;6.53;;;;;;;;;;5052179;28;20588;-53
2021/03/02 07:26:12;;;;;;;11.98;7.10;;;;;;;;;;5052211;28;20218;-55
2021/03/02 07:28:41;;;;;;;10.65;5.93;;;;;;;;;;5053016;28;20214;-58
2021/03/02 07:31:09;;;;;;;12.85;6.60;;;;;;;;;;5052413;28;20204;-57
2021/03/02 07:33:40;;;;;;;13.52;7.05;;;;;;;;;;5043696;28;20200;-54
2021/03/02 07:36:09;;;;;;;11.85;7.05;;;;;;;;;;5062273;28;20200;-54
2021/03/02 07:38:36;;;;;;;10.35;6.07;;;;;;;;;;5053827;28;20223;-48
2021/03/02 07:41:03;;;;;;;13.32;8.07;;;;;;;;;;5055993;28;20211;-55
2021/03/02 07:43:32;;;;;;;13.30;7.38;;;;;;;;;;5055903;28;20206;-54
2021/03/02 07:45:59;;;;;;;14.55;9.07;;;;;;;;;;5056057;28;20194;-45
2021/03/02 07:48:27;;;;;;;13.40;7.30;;;;;;;;;;5054904;28;20200;-50
2021/03/02 07:51:13;;;;;;;14.27;6.78;;;;;;;;;;5055848;28;20253;-53
2021/03/02 07:57:22;;;;;;;10.80;6.30;;;;;;;;;;5062466;28;20180;-50
2021/03/02 08:00:18;;;;;;;12.45;7.65;;;;;;;;;;5054477;28;20200;-53
2021/03/02 08:03:09;;;;;;;13.63;6.18;;;;;;;;;;5055219;28;20191;-57
2021/03/02 08:05:36;;;;;;;12.15;6.70;;;;;;;;;;5054406;28;20223;-50
2021/03/02 08:08:26;;;;;;;9.73;6.00;;;;;;;;;;5053404;28;20208;-54
2021/03/02 08:10:54;;;;;;;11.07;6.85;;;;;;;;;;5043344;28;20214;-54
2021/03/02 08:13:35;;;;;;;15.50;7.38;;;;;;;;;;5054186;28;20204;-50
2021/03/02 08:16:04;;;;;;;12.18;6.30;;;;;;;;;;5054497;28;20211;-52
2021/03/02 08:18:31;;;;;;;11.48;6.28;;;;;;;;;;5055018;28;20200;-59
2021/03/02 08:21:17;;;;;;;11.90;6.65;;;;;;;;;;5054149;28;20203;-53
2021/03/02 08:23:51;;;;;;;10.23;7.10;;;;;;;;;;5054316;28;20201;-53
2021/03/02 08:26:25;;;;;;;12.13;6.40;;;;;;;;;;5054670;28;20204;-56
2021/03/02 08:29:15;;;;;;;11.32;7.63;;;;;;;;;;5054322;28;20416;-57
2021/03/02 08:31:56;;;;;;;11.43;6.25;;;;;;;;;;5054069;28;20192;-56
2021/03/02 08:34:24;;;;;;;13.70;7.00;;;;;;;;;;5033091;28;20204;-52
2021/03/02 08:36:55;;;;;;;10.75;6.47;;;;;;;;;;5039704;28;20194;-60
2021/03/02 08:39:22;;;;;;;9.80;6.38;;;;;;;;;;5053760;28;20185;-58
2021/03/02 08:41:50;;;;;;;20.83;6.60;;;;;;;;;;5050717;28;20205;-55
2021/03/02 08:44:18;;;;;;;11.80;6.28;;;;;;;;;;5054828;28;20215;-56
2021/03/02 08:47:13;;;;;;;10.68;5.68;;;;;;;;;;5052584;28;20231;-50
2021/03/02 08:49:46;;;;;;;13.63;6.22;;;;;;;;;;5045230;28;20347;-55
2021/03/02 08:52:13;;;;;;;14.20;6.95;;;;;;;;;;5033879;28;20322;-47
2021/03/02 08:55:16;;;;;;;15.75;8.10;;;;;;;;;;5033366;28;20194;-45
2021/03/02 08:57:43;;;;;;;9.48;6.68;;;;;;;;;;5032109;28;20253;-52
2021/03/02 09:00:13;;;;;;;12.00;6.80;;;;;;;;;;5059454;28;20193;-52
2021/03/02 09:02:52;;;;;;;13.70;8.67;;;;;;;;;;5069416;28;20248;-52
2021/03/02 09:05:20;;;;;;;10.63;7.13;;;;;;;;;;5052588;28;20456;-58
2021/03/02 09:08:01;;;;;;;11.87;7.80;;;;;;;;;;5052411;28;20460;-51
2021/03/02 09:10:28;;;;;;;18.77;6.67;;;;;;;;;;5052049;28;20546;-48
2021/03/02 09:12:55;;;;;;;11.67;7.30;;;;;;;;;;5046645;28;20503;-54
2021/03/02 09:15:33;;;;;;;11.03;6.87;;;;;;;;;;5032282;28;20430;-54
2021/03/02 09:18:11;;;;;;;14.43;6.70;;;;;;;;;;5044337;28;20482;-55
2021/03/02 09:21:09;;;;;;;12.23;6.90;;;;;;;;;;5052076;28;20436;-56
2021/03/02 09:23:44;;;;;;;12.80;7.47;;;;;;;;;;5033380;28;20466;-48
2021/03/02 09:26:10;;;;;;;13.17;7.40;;;;;;;;;;5036454;28;20486;-56
2021/03/02 09:28:37;;;;;;;15.00;7.60;;;;;;;;;;5061867;28;20499;-59
2021/03/02 09:31:04;;;;;;;11.20;7.40;;;;;;;;;;5107148;28;20468;-55
2021/03/02 09:33:33;;;;;;;17.03;6.83;;;;;;;;;;5052139;28;20891;-53
2021/03/02 09:36:00;;;;;;;12.20;7.00;;;;;;;;;;5052136;28;20472;-54
2021/03/02 09:38:30;;;;;;;15.00;8.47;;;;;;;;;;5052221;28;20612;-49
2021/03/02 09:41:01;;;;;;;16.97;7.70;;;;;;;;;;5053159;28;20491;-53
2021/03/02 09:43:34;;;;;;;13.27;7.53;;;;;;;;;;5050855;28;20468;-51
2021/03/02 09:46:02;;;;;;;12.90;7.13;;;;;;;;;;5046354;27;20460;-52
2021/03/02 09:48:42;;;;;;;16.20;8.60;;;;;;;;;;5034602;28;20451;-58
2021/03/02 09:51:24;;;;;;;10.53;6.97;;;;;;;;;;5035013;28;20428;-53
2021/03/02 09:54:12;;;;;;;12.60;9.10;;;;;;;;;;5044182;28;20455;-55
2021/03/02 09:57:01;;;;;;;12.30;7.63;;;;;;;;;;5049326;28;20453;-50
2021/03/02 09:59:44;;;;;;;11.80;7.50;;;;;;;;;;5036664;28;20499;-56
2021/03/02 10:02:11;;;;;;;12.57;7.57;;;;;;;;;;5051296;28;20489;-52
2021/03/02 10:04:38;;;;;;;13.20;6.83;;;;;;;;;;5050653;28;20470;-54
2021/03/02 10:07:14;;;;;;;12.20;7.90;;;;;;;;;;5050105;28;20448;-52
2021/03/02 10:09:51;;;;;;;12.13;7.97;;;;;;;;;;5047290;28;20482;-55
2021/03/02 10:12:22;;;;;;;14.00;7.20;;;;;;;;;;5051750;28;20476;-51
2021/03/02 10:14:49;;;;;;;14.40;7.40;;;;;;;;;;5051005;28;20457;-55
2021/03/02 10:17:16;;;;;;;12.30;6.87;;;;;;;;;;5066682;28;20479;-48
2021/03/02 10:20:05;;;;;;;12.83;7.77;;;;;;;;;;5048978;28;20470;-47
2021/03/02 10:22:37;;;;;;;14.87;7.73;;;;;;;;;;5046182;28;20582;-51
2021/03/02 10:25:04;;;;;;;11.93;8.30;;;;;;;;;;5046637;28;20478;-57
2021/03/02 10:27:33;;;;;;;11.37;7.87;;;;;;;;;;5048691;28;20460;-55
2021/03/02 10:30:05;;;;;;;9.57;6.80;;;;;;;;;;5048965;28;20503;-56
2021/03/02 10:32:32;;;;;;;19.73;12.33;;;;;;;;;;5050523;28;20453;-52
2021/03/02 10:35:08;;;;;;;11.57;8.13;;;;;;;;;;5050563;28;20509;-55
2021/03/02 10:37:35;;;;;;;19.13;7.93;;;;;;;;;;5053149;28;20502;-51
2021/03/02 10:40:02;;;;;;;19.40;7.50;;;;;;;;;;5049893;28;20478;-47
2021/03/02 10:43:05;;;;;;;16.27;7.80;;;;;;;;;;5051664;28;20631;-58
2021/03/02 10:45:33;;;;;;;12.03;7.10;;;;;;;;;;5050726;28;20448;-54
2021/03/02 10:47:59;;;;;;;15.20;8.33;;;;;;;;;;5035161;28;20919;-48
2021/03/02 10:53:30;;;;;;;12.23;7.63;;;;;;;;;;5050692;28;20443;-51
2021/03/02 10:55:57;;;;;;;16.00;8.73;;;;;;;;;;5050018;28;20472;-60
2021/03/02 10:58:24;;;;;;;13.20;8.93;;;;;;;;;;5041924;28;20481;-52
2021/03/02 11:00:52;;;;;;;12.17;9.40;;;;;;;;;;5030503;28;20538;-55
2021/03/02 11:03:20;;;;;;;17.13;9.20;;;;;;;;;;5041527;28;20485;-53
2021/03/02 11:05:47;;;;;;;14.20;8.73;;;;;;;;;;5051033;28;20431;-54
2021/03/02 11:08:14;;;;;;;16.30;8.77;;;;;;;;;;5036450;28;20470;-56
2021/03/02 11:10:43;;;;;;;16.00;8.83;;;;;;;;;;5030937;28;20496;-58
2021/03/02 11:13:13;;;;;;;20.10;10.30;;;;;;;;;;5043501;28;20490;-57
2021/03/02 11:15:47;;;;;;;17.87;9.70;;;;;;;;;;5050960;28;20476;-57
2021/03/02 11:18:15;;;;;;;19.70;9.60;;;;;;;;;;5046689;28;20453;-55
2021/03/02 11:20:45;;;;;;;12.80;7.60;;;;;;;;;;5050881;28;20458;-54
2021/03/02 11:26:15;;;;;;;14.20;8.73;;;;;;;;;;5041618;28;20433;-57
2021/03/02 11:28:44;;;;;;;13.70;8.77;;;;;;;;;;5050207;28;20445;-52
2021/03/02 11:31:13;;;;;;;15.53;10.30;;;;;;;;;;5051473;28;20457;-58
2021/03/02 11:33:47;;;;;;;14.10;8.80;;;;;;;;;;5066597;28;20446;-54
2021/03/02 11:36:23;;;;;;;17.23;9.50;;;;;;;;;;5048401;28;20480;-53
2021/03/02 11:38:50;;;;;;;15.43;9.73;;;;;;;;;;5051320;28;20603;-52
2021/03/02 11:41:17;;;;;;;14.97;8.60;;;;;;;;;;5051100;28;20422;-51
2021/03/02 11:44:08;;;;;;;14.70;8.50;;;;;;;;;;5051231;28;20441;-56
2021/03/02 11:46:44;;;;;;;14.87;8.83;;;;;;;;;;5033687;28;20518;-54
2021/03/02 11:49:18;;;;;;;14.70;9.73;;;;;;;;;;5050684;28;20494;-55
2021/03/02 11:51:54;;;;;;;18.40;9.30;;;;;;;;;;5071193;28;20466;-52
2021/03/02 11:54:21;;;;;;;11.30;7.10;;;;;;;;;;5051634;28;20512;-56
2021/03/02 11:56:48;;;;;;;12.27;8.13;;;;;;;;;;5049844;28;20481;-50
2021/03/02 11:59:28;;;;;;;16.27;10.10;;;;;;;;;;5049936;28;20513;-54
2021/03/02 12:01:55;;;;;;;13.23;8.57;;;;;;;;;;5048059;28;20543;-54
2021/03/02 12:04:37;;;;;;;15.60;8.83;;;;;;;;;;5049773;28;20455;-54
2021/03/02 12:07:14;;;;;;;15.43;8.17;;;;;;;;;;5049762;28;20894;-57
2021/03/02 12:09:40;;;;;;;16.33;8.43;;;;;;;;;;5048526;28;20519;-52
2021/03/02 12:12:08;;;;;;;13.80;8.40;;;;;;;;;;5050184;28;20545;-52
2021/03/02 12:14:38;;;;;;;13.90;8.70;;;;;;;;;;5040112;28;20463;-53
2021/03/02 12:17:05;;;;;;;15.83;9.33;;;;;;;;;;5031571;28;20450;-52
2021/03/02 12:19:32;;;;;;;17.93;8.70;;;;;;;;;;5051023;28;20455;-54
2021/03/02 12:22:24;;;;;;;15.40;8.87;;;;;;;;;;5040940;27;20482;-57
2021/03/02 12:24:56;;;;;;;13.67;8.43;;;;;;;;;;5039167;28;20572;-51
2021/03/02 12:27:23;;;;;;;14.07;8.97;;;;;;;;;;5052784;28;20471;-58
2021/03/02 12:29:52;;;;;;;18.90;9.80;;;;;;;;;;5038843;28;20491;-57
2021/03/02 12:32:18;;;;;;;13.30;8.30;;;;;;;;;;5042859;28;20452;-57
2021/03/02 12:34:46;;;;;;;16.47;8.93;;;;;;;;;;5052953;28;20444;-56
2021/03/02 12:37:15;;;;;;;21.30;10.67;;;;;;;;;;5052870;28;20495;-53
2021/03/02 12:39:42;;;;;;;17.27;9.10;;;;;;;;;;5054065;28;20489;-58
2021/03/02 12:42:10;;;;;;;13.73;8.03;;;;;;;;;;5052681;28;20433;-55
2021/03/02 12:44:43;;;;;;;15.50;9.07;;;;;;;;;;5052584;28;20467;-54
2021/03/02 12:47:32;;;;;;;15.17;8.20;;;;;;;;;;5053282;28;20463;-51
2021/03/02 12:50:08;;;;;;;18.23;9.70;;;;;;;;;;5041745;28;20542;-60
2021/03/02 12:52:52;;;;;;;16.90;10.40;;;;;;;;;;5048722;28;20528;-58
2021/03/02 12:55:29;;;;;;;17.80;9.50;;;;;;;;;;5052179;28;20475;-52
2021/03/02 12:58:32;;;;;;;19.00;9.53;;;;;;;;;;5053633;27;20460;-54
2021/03/02 13:01:02;;;;;;;16.53;8.67;;;;;;;;;;5050189;28;20483;-58
2021/03/02 13:03:29;;;;;;;17.83;9.43;;;;;;;;;;5051943;28;20454;-50
2021/03/02 13:06:19;;;;;;;14.90;7.60;;;;;;;;;;5051772;28;20467;-56
2021/03/02 13:08:47;;;;;;;20.10;11.27;;;;;;;;;;5051456;28;20454;-56
2021/03/02 13:11:14;;;;;;;15.70;9.60;;;;;;;;;;5051975;28;20463;-55
2021/03/02 13:13:41;;;;;;;18.77;9.33;;;;;;;;;;5051832;28;20539;-48
2021/03/02 13:16:08;;;;;;;18.97;10.70;;;;;;;;;;5048759;28;20455;-51
2021/03/02 13:18:41;;;;;;;23.40;10.30;;;;;;;;;;5032664;28;20577;-52
2021/03/02 13:21:27;;;;;;;15.00;9.17;;;;;;;;;;5040726;28;20497;-55
2021/03/02 13:23:58;;;;;;;12.40;7.87;;;;;;;;;;5042620;28;20499;-56
2021/03/02 13:26:26;;;;;;;29.90;10.67;;;;;;;;;;5051533;28;20452;-51
2021/03/02 13:29:12;;;;;;;17.27;8.47;;;;;;;;;;5051052;28;20499;-53
2021/03/02 13:31:41;;;;;;;21.27;9.77;;;;;;;;;;5117002;27;20452;-52
2021/03/02 13:34:12;;;;;;;16.37;10.37;;;;;;;;;;5155176;27;20445;-55
2021/03/02 13:36:49;;;;;;;21.67;11.80;;;;;;;;;;5156203;27;20433;-55
2021/03/02 13:39:18;;;;;;;12.80;9.13;;;;;;;;;;5086934;27;20460;-56
2021/03/02 13:41:46;;;;;;;12.70;7.73;;;;;;;;;;5051607;28;20447;-59
2021/03/02 13:44:25;;;;;;;22.03;9.33;;;;;;;;;;5052050;28;20480;-54
2021/03/02 13:47:31;;;;;;;21.23;13.80;;;;;;;;;;5050066;28;20496;-56
2021/03/02 13:50:02;;;;;;;15.53;8.87;;;;;;;;;;5051162;28;20502;-49
2021/03/02 13:52:30;;;;;;;16.80;9.60;;;;;;;;;;5052113;28;20446;-51
2021/03/02 13:54:58;;;;;;;17.77;9.90;;;;;;;;;;5051363;28;20436;-58
2021/03/02 13:57:29;;;;;;;18.73;9.90;;;;;;;;;;5050744;28;20488;-59
2021/03/02 14:00:00;;;;;;;17.07;10.40;;;;;;;;;;5050819;28;20536;-55
2021/03/02 14:02:27;;;;;;;17.27;8.40;;;;;;;;;;5051039;28;20479;-53
2021/03/02 14:04:57;;;;;;;14.57;9.50;;;;;;;;;;5051072;28;20456;-55
2021/03/02 14:07:37;;;;;;;22.63;9.57;;;;;;;;;;5051094;28;20863;-54
2021/03/02 14:10:06;;;;;;;15.50;8.60;;;;;;;;;;5051797;28;20543;-52
2021/03/02 14:13:04;;;;;;;16.50;9.23;;;;;;;;;;5050735;28;20468;-57
2021/03/02 14:15:33;;;;;;;18.67;9.23;;;;;;;;;;5049306;28;20490;-52
2021/03/02 14:18:02;;;;;;;16.53;8.43;;;;;;;;;;5051896;28;20451;-54
2021/03/02 14:20:31;;;;;;;14.57;8.10;;;;;;;;;;5050015;28;20432;-56
2021/03/02 14:22:59;;;;;;;18.07;9.47;;;;;;;;;;5050867;28;20467;-49
2021/03/02 14:25:26;;;;;;;16.43;8.83;;;;;;;;;;5051345;28;20467;-59
2021/03/02 14:28:11;;;;;;;19.23;8.40;;;;;;;;;;5050486;28;20456;-51
2021/03/02 14:30:39;;;;;;;21.30;10.93;;;;;;;;;;5035096;28;20485;-61
2021/03/02 14:33:31;;;;;;;15.10;8.43;;;;;;;;;;5051718;27;20517;-51
2021/03/02 14:36:11;;;;;;;12.60;7.67;;;;;;;;;;5051089;28;20495;-53
2021/03/02 14:38:43;;;;;;;12.73;8.73;;;;;;;;;;5050678;28;20448;-57
2021/03/02 14:41:12;;;;;;;19.20;8.30;;;;;;;;;;5051020;28;20447;-58
2021/03/02 14:43:57;;;;;;;19.43;7.90;;;;;;;;;;5049972;28;20462;-51
2021/03/02 14:46:38;;;;;;;14.53;8.40;;;;;;;;;;5051690;28;20468;-57
2021/03/02 14:49:14;;;;;;;13.80;7.10;;;;;;;;;;5052011;28;20464;-57
2021/03/02 14:52:02;;;;;;;16.20;7.60;;;;;;;;;;5050619;28;20658;-55
2021/03/02 14:54:34;;;;;;;22.40;9.87;;;;;;;;;;5048167;28;20515;-54
2021/03/02 14:57:02;;;;;;;21.13;9.13;;;;;;;;;;5050536;28;20544;-56
2021/03/02 14:59:32;;;;;;;17.30;8.83;;;;;;;;;;5057524;28;20493;-50
2021/03/02 15:02:01;;;;;;;21.67;8.67;;;;;;;;;;5056949;28;20456;-51
2021/03/02 15:04:28;;;;;;;21.60;8.00;;;;;;;;;;5050348;28;20453;-54
2021/03/02 15:07:42;;;;;;;12.27;7.87;;;;;;;;;;5052947;28;20458;-52
2021/03/02 15:10:19;;;;;;;15.20;7.53;;;;;;;;;;5049799;28;20497;-53
2021/03/02 15:12:54;;;;;;;13.87;6.90;;;;;;;;;;5049229;27;20462;-50
2021/03/02 15:15:25;;;;;;;25.60;9.07;;;;;;;;;;5051202;28;20555;-51
2021/03/02 15:18:05;;;;;;;15.27;7.53;;;;;;;;;;5037138;28;20489;-56
2021/03/02 15:20:32;;;;;;;16.93;8.40;;;;;;;;;;5050997;28;20485;-56
2021/03/02 15:22:59;;;;;;;20.33;8.70;;;;;;;;;;5050292;28;20445;-53